Time;durP1;ratioP1;P1;durP2;ratioP2;P2;SDS_P1;SDS_P2;PMS_P1;PMS_P2;Temp;Humidity;BMP_temperature;BMP_pressure;BME280_temperature;BME280_humidity;BME280_pressure;Samples;Min_cycle;Max_cycle;Signal;HPM_P1;HPM_P2
2021/12/17 00:00:17;;;;;;;68.20;26.17;;;;;;;8.28;96.36;103543.44;5093987;28;20273;-73
2021/12/17 00:05:45;;;;;;;79.27;30.07;;;;;;;8.29;96.25;103540.00;5116825;28;20197;-73
2021/12/17 00:08:12;;;;;;;80.27;26.87;;;;;;;8.30;96.40;103539.16;5116484;28;20169;-73
2021/12/17 00:10:40;;;;;;;76.07;27.47;;;;;;;8.30;96.31;103538.28;5116437;28;20189;-73
2021/12/17 00:13:07;;;;;;;90.43;27.97;;;;;;;8.30;96.26;103533.94;5116959;28;20166;-74
2021/12/17 00:15:33;;;;;;;84.03;28.50;;;;;;;8.29;96.15;103534.78;5116328;28;20230;-74
2021/12/17 00:18:08;;;;;;;83.93;27.23;;;;;;;8.28;96.23;103531.25;5116290;28;20193;-74
2021/12/17 00:40:08;;;;;;;64.93;26.37;;;;;;;8.26;96.18;103526.91;5116068;28;20635;-74
2021/12/17 00:48:24;;;;;;;72.13;26.23;;;;;;;8.15;96.45;103525.88;5115994;28;20252;-74
2021/12/17 00:53:21;;;;;;;64.00;25.13;;;;;;;8.13;96.62;103531.06;5115637;28;20181;-74
2021/12/17 00:55:47;;;;;;;74.93;26.30;;;;;;;8.17;96.39;103527.66;5115884;28;20628;-74
2021/12/17 00:58:15;;;;;;;65.83;24.97;;;;;;;8.18;96.42;103518.09;5097402;28;20201;-74
2021/12/17 01:00:42;;;;;;;82.70;27.43;;;;;;;8.19;96.38;103517.22;5097950;28;20200;-74
2021/12/17 01:03:10;;;;;;;70.47;26.20;;;;;;;8.19;96.48;103514.63;5097303;28;20208;-74
2021/12/17 01:05:37;;;;;;;62.13;25.10;;;;;;;8.18;96.37;103511.13;5115341;28;20181;-73
2021/12/17 01:08:06;;;;;;;61.73;24.03;;;;;;;8.17;96.36;103509.38;5131210;27;20212;-73
2021/12/17 01:10:47;;;;;;;64.40;23.80;;;;;;;8.16;96.43;103505.03;5115262;28;20255;-73
2021/12/17 01:13:43;;;;;;;61.90;24.20;;;;;;;8.17;96.37;103508.50;5096930;28;20192;-73
2021/12/17 01:16:22;;;;;;;71.93;26.47;;;;;;;8.13;96.39;103502.34;5115724;28;20178;-73
2021/12/17 01:19:12;;;;;;;80.37;26.90;;;;;;;8.12;96.50;103507.56;5097042;28;20625;-74
2021/12/17 01:21:57;;;;;;;76.10;27.83;;;;;;;8.13;96.50;103499.75;5096740;28;20567;-74
2021/12/17 01:36:14;;;;;;;81.53;27.47;;;;;;;8.18;96.53;103507.66;5102022;28;20224;-74
2021/12/17 01:40:00;;;;;;;79.37;28.97;;;;;;;8.18;96.61;103512.88;5096380;28;20213;-74
2021/12/17 01:41:59;;;;;;;68.23;25.90;;;;;;;8.18;96.45;103520.69;5113630;28;20227;-74
2021/12/17 01:44:26;;;;;;;60.23;24.93;;;;;;;8.18;96.48;103518.09;5096617;28;20670;-73
2021/12/17 01:46:54;;;;;;;58.90;23.83;;;;;;;8.17;96.45;103521.56;5096322;28;20199;-73
2021/12/17 01:55:45;;;;;;;76.83;25.27;;;;;;;8.15;96.40;103524.16;5079354;28;20213;-74
2021/12/17 02:00:41;;;;;;;75.20;27.83;;;;;;;8.19;96.60;103518.09;5130193;27;20185;-74
2021/12/17 02:03:09;;;;;;;80.47;28.63;;;;;;;8.20;96.66;103524.19;5096171;28;20228;-74
2021/12/17 02:05:37;;;;;;;71.50;28.93;;;;;;;8.24;96.63;103524.28;5096325;28;20197;-76
2021/12/17 02:08:05;;;;;;;64.30;24.20;;;;;;;8.21;96.50;103524.22;5095958;28;20193;-76
2021/12/17 02:30:30;;;;;;;77.27;27.03;;;;;;;8.22;96.56;103525.13;5095669;28;20277;-76
2021/12/17 02:32:46;;;;;;;88.50;31.07;;;;;;;8.21;96.63;103520.72;5093962;28;20746;-76
2021/12/17 02:35:27;;;;;;;81.53;30.10;;;;;;;8.21;96.71;103518.13;5095582;28;20210;-76
2021/12/17 02:37:55;;;;;;;82.50;29.53;;;;;;;8.21;96.63;103521.59;5095542;28;20212;-76
2021/12/17 02:46:14;;;;;;;75.70;25.97;;;;;;;8.21;96.37;103520.72;5096707;28;20181;-76
2021/12/17 02:48:41;;;;;;;66.30;23.50;;;;;;;8.17;96.46;103522.44;5095703;28;20221;-76
2021/12/17 02:51:09;;;;;;;84.50;27.23;;;;;;;8.17;96.35;103519.81;5095583;28;20193;-74
2021/12/17 02:53:36;;;;;;;78.17;25.73;;;;;;;8.16;96.70;103520.69;5097284;28;20230;-73
2021/12/17 02:56:05;;;;;;;91.77;30.27;;;;;;;8.19;96.59;103523.31;5117922;28;20220;-74
2021/12/17 02:58:34;;;;;;;104.97;30.03;;;;;;;8.18;96.54;103523.31;5117824;28;20169;-76
2021/12/17 03:01:04;;;;;;;94.20;29.60;;;;;;;8.20;96.55;103513.75;5117819;28;20177;-76
2021/12/17 03:03:33;;;;;;;82.40;28.47;;;;;;;8.24;96.40;103523.41;5117702;28;20193;-76
2021/12/17 03:06:00;;;;;;;96.17;31.43;;;;;;;8.23;96.40;103526.88;5099433;28;20169;-76
2021/12/17 03:08:26;;;;;;;88.13;29.27;;;;;;;8.19;96.56;103525.94;5133415;27;20603;-76
2021/12/17 03:10:53;;;;;;;100.57;31.60;;;;;;;8.22;96.38;103525.13;5118452;28;20178;-76
2021/12/17 03:13:22;;;;;;;103.73;31.27;;;;;;;8.23;96.44;103519.03;5133412;27;20185;-76
2021/12/17 03:18:50;;;;;;;101.53;32.47;;;;;;;8.16;96.66;103519.81;5099106;28;20196;-76
2021/12/17 03:23:53;;;;;;;109.03;31.20;;;;;;;8.12;96.89;103507.56;5099003;28;20556;-76
2021/12/17 03:26:28;;;;;;;97.83;30.43;;;;;;;8.15;97.09;103510.22;5133714;27;20724;-76
2021/12/17 03:29:03;;;;;;;79.23;29.53;;;;;;;8.22;96.81;103509.47;5098929;28;20216;-76
2021/12/17 03:31:31;;;;;;;88.80;31.07;;;;;;;8.22;96.82;103504.25;5099237;28;20211;-76
2021/12/17 03:34:15;;;;;;;91.70;29.80;;;;;;;8.15;96.96;103507.63;5099196;28;20187;-76
2021/12/17 03:36:44;;;;;;;82.17;29.20;;;;;;;8.19;96.89;103509.41;5098905;28;20176;-76
2021/12/17 03:39:10;;;;;;;87.83;29.07;;;;;;;8.19;97.06;103509.41;5132882;27;20221;-76
2021/12/17 03:41:39;;;;;;;82.40;27.93;;;;;;;8.20;96.96;103505.94;5099005;28;20688;-76
2021/12/17 03:44:08;;;;;;;75.07;28.10;;;;;;;8.17;97.07;103511.13;5098591;28;20205;-76
2021/12/17 03:47:04;;;;;;;68.83;27.30;;;;;;;8.15;96.97;103510.22;5111977;28;20211;-76
2021/12/17 03:49:43;;;;;;;86.57;28.43;;;;;;;8.16;97.00;103505.03;5132691;27;20689;-76
2021/12/17 03:52:10;;;;;;;70.80;25.83;;;;;;;8.16;97.07;103509.38;5098516;28;20196;-76
2021/12/17 03:54:40;;;;;;;72.83;25.90;;;;;;;8.18;97.23;103512.88;5098504;28;20580;-76
2021/12/17 03:57:11;;;;;;;67.90;26.00;;;;;;;8.18;97.02;103511.13;5133461;27;20189;-74
2021/12/17 03:59:44;;;;;;;76.47;25.63;;;;;;;8.19;97.14;103506.78;5099868;28;20204;-74
2021/12/17 04:02:12;;;;;;;76.80;26.20;;;;;;;8.19;97.04;103507.66;5099483;28;20212;-73
2021/12/17 04:04:39;;;;;;;69.20;25.70;;;;;;;8.21;97.10;103512.91;5097301;28;20199;-76
2021/12/17 04:07:38;;;;;;;74.57;26.17;;;;;;;8.21;97.05;103515.50;5084541;28;20192;-76
2021/12/17 04:10:07;;;;;;;69.33;25.37;;;;;;;8.24;97.13;103513.81;5116418;28;20205;-76
2021/12/17 04:12:51;;;;;;;73.80;26.13;;;;;;;8.22;97.12;103517.28;5098501;28;20213;-74
2021/12/17 04:15:18;;;;;;;74.30;24.50;;;;;;;8.22;96.91;103514.69;5098385;28;20279;-76
2021/12/17 04:17:52;;;;;;;63.33;24.03;;;;;;;8.20;96.88;103517.25;5098054;28;20192;-76
2021/12/17 04:20:19;;;;;;;76.87;26.17;;;;;;;8.20;97.03;103516.38;5116247;28;20670;-76
2021/12/17 04:22:46;;;;;;;68.03;25.30;;;;;;;8.18;96.95;103513.75;5098405;28;20666;-76
2021/12/17 04:25:12;;;;;;;77.23;24.93;;;;;;;8.19;96.98;103514.63;5097966;28;20193;-76
2021/12/17 04:27:39;;;;;;;70.77;25.43;;;;;;;8.20;96.93;103514.63;5132024;27;20255;-76
2021/12/17 04:30:10;;;;;;;65.77;24.73;;;;;;;8.21;96.99;103518.13;5097792;28;20224;-76
2021/12/17 04:32:37;;;;;;;61.03;23.53;;;;;;;8.19;96.91;103523.31;5097924;28;20196;-76
2021/12/17 04:35:05;;;;;;;68.17;23.50;;;;;;;8.20;96.84;103524.19;5097709;28;20192;-76
2021/12/17 04:37:45;;;;;;;62.93;24.63;;;;;;;8.24;96.96;103518.19;5098028;28;20280;-77
2021/12/17 04:40:12;;;;;;;61.77;23.00;;;;;;;8.22;96.74;103514.69;5116127;28;20254;-77
2021/12/17 04:45:13;;;;;;;55.83;23.53;;;;;;;8.21;96.71;103520.72;5131669;27;20196;-77
2021/12/17 04:59:05;;;;;;;64.43;22.60;;;;;;;8.16;96.96;103528.50;5097314;28;20282;-76
2021/12/17 05:01:34;;;;;;;58.20;21.77;;;;;;;8.17;96.83;103526.78;5115523;28;20197;-76
2021/12/17 05:04:03;;;;;;;51.63;20.97;;;;;;;8.17;96.85;103524.16;5097222;28;20566;-74
2021/12/17 05:06:31;;;;;;;55.27;21.13;;;;;;;8.17;96.73;103516.34;5097097;28;20181;-74
2021/12/17 05:09:10;;;;;;;58.53;21.77;;;;;;;8.18;96.62;103518.97;5097050;28;20300;-74
2021/12/17 05:19:50;;;;;;;51.37;20.00;;;;;;;8.13;96.80;103520.63;5115054;28;20205;-74
2021/12/17 05:22:18;;;;;;;44.90;17.97;;;;;;;8.14;96.85;103526.72;5096713;28;20541;-74
2021/12/17 05:24:46;;;;;;;50.50;19.33;;;;;;;8.13;96.73;103533.66;5096600;28;20212;-74
2021/12/17 05:27:13;;;;;;;53.57;19.97;;;;;;;8.16;96.42;103535.47;5096589;28;20190;-74
2021/12/17 05:29:48;;;;;;;63.10;21.20;;;;;;;8.14;96.75;103537.16;5096963;28;20211;-76
2021/12/17 05:32:14;;;;;;;48.30;18.63;;;;;;;8.17;96.72;103530.25;5096614;28;20201;-76
2021/12/17 05:34:42;;;;;;;44.40;18.27;;;;;;;8.10;96.65;103536.25;5097069;28;20192;-76
2021/12/17 05:37:12;;;;;;;52.17;19.50;;;;;;;8.10;96.66;103536.25;5114755;28;20187;-76
2021/12/17 05:39:38;;;;;;;45.93;18.10;;;;;;;8.09;96.65;103534.50;5096359;28;20201;-76
2021/12/17 05:42:07;;;;;;;48.00;18.33;;;;;;;8.09;96.81;103531.00;5130518;27;20197;-76
2021/12/17 05:44:45;;;;;;;46.70;17.27;;;;;;;8.10;96.85;103535.38;5096545;28;20228;-76
2021/12/17 05:47:11;;;;;;;42.10;17.97;;;;;;;8.13;96.67;103528.44;5096492;28;20185;-76
2021/12/17 05:49:38;;;;;;;43.13;18.60;;;;;;;8.15;96.65;103528.50;5096078;28;20205;-76
2021/12/17 05:52:05;;;;;;;36.10;16.70;;;;;;;8.10;96.68;103530.16;5114448;28;20186;-76
2021/12/17 05:54:33;;;;;;;41.10;16.87;;;;;;;8.11;96.52;103529.28;5096220;28;20192;-76
2021/12/17 05:57:00;;;;;;;44.13;17.43;;;;;;;8.14;96.65;103534.53;5096394;28;20193;-76
2021/12/17 05:59:34;;;;;;;42.53;16.50;;;;;;;8.09;96.60;103528.41;5096048;28;20209;-76
2021/12/17 06:02:07;;;;;;;35.97;15.53;;;;;;;8.06;96.71;103517.91;5096046;28;20205;-76
2021/12/17 06:04:37;;;;;;;38.70;14.83;;;;;;;8.11;96.71;103526.69;5096159;28;20200;-76
2021/12/17 06:07:05;;;;;;;42.47;16.13;;;;;;;8.08;96.72;103521.44;5079274;28;20221;-76
2021/12/17 06:09:34;;;;;;;38.07;15.67;;;;;;;8.04;97.13;103517.00;5095882;28;20217;-76
2021/12/17 06:12:06;;;;;;;41.33;15.73;;;;;;;8.03;96.91;103510.03;5096749;28;20181;-76
2021/12/17 06:14:33;;;;;;;37.77;16.30;;;;;;;8.09;96.81;103524.06;5095857;28;20182;-76
2021/12/17 06:17:00;;;;;;;37.37;15.67;;;;;;;8.06;96.80;103521.38;5095866;28;20597;-76
2021/12/17 06:19:35;;;;;;;30.47;16.23;;;;;;;8.07;96.86;103524.88;5095995;28;20241;-76
2021/12/17 06:22:03;;;;;;;35.93;15.47;;;;;;;8.08;96.88;103526.66;5096021;28;20706;-77
2021/12/17 06:24:30;;;;;;;34.03;16.13;;;;;;;8.04;96.86;103519.63;5129969;27;20205;-74
2021/12/17 06:26:58;;;;;;;32.17;15.03;;;;;;;8.03;96.92;103516.13;5095871;28;20193;-73
2021/12/17 06:29:24;;;;;;;35.10;16.33;;;;;;;8.00;96.88;103511.78;5095136;28;20216;-74
2021/12/17 06:31:59;;;;;;;30.57;14.27;;;;;;;7.99;97.05;103507.38;5130525;27;20184;-73
2021/12/17 06:34:26;;;;;;;32.43;14.97;;;;;;;8.00;96.88;103510.84;5095530;28;20192;-73
2021/12/17 06:36:52;;;;;;;33.83;15.77;;;;;;;7.98;97.04;103505.63;5095442;28;20185;-73
2021/12/17 06:39:19;;;;;;;29.27;15.00;;;;;;;8.00;97.10;103510.84;5113669;28;20201;-73
2021/12/17 06:41:46;;;;;;;24.07;14.33;;;;;;;8.00;97.09;103514.38;5095632;28;20677;-73
2021/12/17 06:44:15;;;;;;;29.57;12.47;;;;;;;7.97;97.13;103514.31;5095305;28;20583;-76
2021/12/17 07:01:06;;;;;;;24.47;13.53;;;;;;;7.93;97.43;103509.91;5093979;28;20204;-72
2021/12/17 07:08:24;;;;;;;30.50;13.23;;;;;;;8.00;97.34;103508.25;5067946;28;20549;-72
2021/12/17 07:10:30;;;;;;;24.97;12.97;;;;;;;7.94;97.49;103503.84;5095377;28;20212;-72
2021/12/17 07:17:12;;;;;;;22.30;12.67;;;;;;;7.95;97.42;103508.19;5095179;28;20209;-72
2021/12/17 07:19:13;;;;;;;30.43;14.13;;;;;;;7.95;97.49;103521.25;5129005;28;20324;-73
2021/12/17 07:24:46;;;;;;;34.80;15.70;;;;;;;8.00;97.55;103514.38;5113563;28;20241;-73
2021/12/17 07:40:33;;;;;;;33.33;14.10;;;;;;;7.98;97.32;103510.84;5098923;28;20217;-73
2021/12/17 07:43:11;;;;;;;33.90;14.77;;;;;;;7.95;97.39;103516.03;5099467;28;20181;-73
2021/12/17 07:45:44;;;;;;;30.13;14.73;;;;;;;7.97;97.56;103519.53;5098539;28;20570;-73
2021/12/17 07:48:23;;;;;;;29.67;14.03;;;;;;;7.99;97.38;103524.75;5132668;27;20213;-73
2021/12/17 07:51:19;;;;;;;28.67;13.30;;;;;;;7.98;97.58;103525.63;5112896;28;20220;-71
2021/12/17 07:54:05;;;;;;;31.87;13.77;;;;;;;7.94;97.54;103534.28;5116390;28;20234;-71
2021/12/17 07:56:38;;;;;;;24.73;11.40;;;;;;;8.03;97.46;103549.19;5098480;28;20193;-70
2021/12/17 07:59:14;;;;;;;25.23;12.37;;;;;;;7.97;97.62;103553.44;5099287;28;20654;-71
2021/12/17 08:01:41;;;;;;;28.40;12.20;;;;;;;8.08;97.26;103555.34;5132468;27;20193;-71
2021/12/17 08:04:08;;;;;;;24.00;10.67;;;;;;;8.03;97.24;103559.63;5098126;28;20209;-71
2021/12/17 08:07:01;;;;;;;24.10;11.60;;;;;;;8.08;97.08;103563.19;5111537;28;20208;-71
2021/12/17 08:09:33;;;;;;;28.20;12.93;;;;;;;8.07;97.18;103571.84;5098804;28;20300;-71
2021/12/17 08:12:02;;;;;;;23.03;12.03;;;;;;;8.10;96.82;103578.00;5098337;28;20192;-71
2021/12/17 08:14:35;;;;;;;25.03;12.27;;;;;;;8.05;97.21;103576.16;5098136;28;20209;-71
2021/12/17 08:18:14;;;;;;;36.53;13.70;;;;;;;8.06;96.83;103578.78;5081700;28;20654;-71
2021/12/17 08:25:30;;;;;;;26.97;13.63;;;;;;;7.95;97.27;103577.78;5098378;28;20211;-73
2021/12/17 08:28:07;;;;;;;32.93;14.43;;;;;;;8.05;97.31;103584.00;5098597;28;20181;-73
2021/12/17 08:30:39;;;;;;;27.57;13.53;;;;;;;8.08;97.26;103584.94;5097703;28;20591;-74
2021/12/17 08:33:13;;;;;;;32.63;14.87;;;;;;;8.07;97.09;103585.75;5098559;28;20189;-74
2021/12/17 08:35:39;;;;;;;33.30;14.70;;;;;;;8.03;96.96;103583.09;5115820;28;20249;-74
2021/12/17 08:38:17;;;;;;;32.73;13.93;;;;;;;8.05;96.97;103584.88;5097940;28;20191;-74
2021/12/17 08:40:44;;;;;;;24.07;12.07;;;;;;;8.08;96.91;103578.84;5097710;28;20199;-73
2021/12/17 08:43:11;;;;;;;29.40;12.87;;;;;;;8.02;97.18;103576.13;5097563;28;20192;-74
2021/12/17 08:45:45;;;;;;;26.30;11.73;;;;;;;8.02;97.30;103577.00;5097432;28;20671;-74
2021/12/17 08:48:30;;;;;;;25.73;11.97;;;;;;;8.12;97.26;103575.41;5115755;28;20183;-74
2021/12/17 08:51:16;;;;;;;25.53;13.27;;;;;;;8.11;97.33;103589.31;5115577;28;20199;-74
2021/12/17 08:53:43;;;;;;;24.10;11.10;;;;;;;8.08;97.24;103586.66;5097809;28;20192;-74
2021/12/17 08:56:14;;;;;;;24.23;10.87;;;;;;;8.05;97.31;103584.00;5097295;28;20585;-76
2021/12/17 08:58:41;;;;;;;17.00;10.07;;;;;;;8.09;97.30;103591.91;5098295;28;20304;-74
2021/12/17 09:01:08;;;;;;;19.13;11.23;;;;;;;8.07;96.95;103588.38;5097145;28;20197;-74
2021/12/17 09:03:35;;;;;;;13.17;9.50;;;;;;;8.05;97.22;103594.44;5131282;27;20636;-76
2021/12/17 09:06:08;;;;;;;16.60;10.43;;;;;;;8.02;96.97;103595.28;5081319;28;20212;-76
2021/12/17 09:08:44;;;;;;;17.10;9.83;;;;;;;8.09;96.71;103598.84;5097672;28;20209;-76
2021/12/17 09:11:11;;;;;;;15.40;10.10;;;;;;;8.12;96.83;103596.28;5096989;28;20261;-74
2021/12/17 09:13:47;;;;;;;16.67;9.43;;;;;;;8.00;96.91;103603.09;5131162;27;20205;-74
2021/12/17 09:16:14;;;;;;;20.97;10.83;;;;;;;8.07;96.90;103608.38;5096931;28;20636;-74
2021/12/17 09:18:41;;;;;;;17.57;11.13;;;;;;;8.14;96.64;103602.41;5131456;27;20220;-74
2021/12/17 09:21:37;;;;;;;22.47;11.73;;;;;;;8.18;96.60;103604.22;5101544;28;20698;-73
2021/12/17 09:24:09;;;;;;;20.27;11.00;;;;;;;8.07;96.64;103605.75;5130827;27;20208;-73
2021/12/17 09:26:55;;;;;;;20.10;11.70;;;;;;;8.09;96.67;103614.50;5114853;28;20674;-73
2021/12/17 09:29:28;;;;;;;27.63;11.47;;;;;;;8.03;96.80;103607.47;5096673;28;20217;-73
2021/12/17 09:31:55;;;;;;;29.23;11.77;;;;;;;8.07;97.04;103609.25;5115094;28;20182;-73
2021/12/17 09:34:22;;;;;;;24.57;13.23;;;;;;;8.15;96.90;103605.06;5115253;28;20226;-77
2021/12/17 09:36:49;;;;;;;22.17;12.20;;;;;;;8.08;96.80;103610.16;5115055;28;20654;-77
2021/12/17 09:39:17;;;;;;;30.03;13.13;;;;;;;8.13;96.79;103609.34;5114609;28;20201;-76
2021/12/17 09:41:50;;;;;;;26.03;11.60;;;;;;;8.17;96.34;103610.28;5115248;28;20189;-77
2021/12/17 09:44:18;;;;;;;20.80;11.17;;;;;;;8.18;96.42;103602.47;5114894;28;20552;-77
2021/12/17 09:46:47;;;;;;;17.60;11.27;;;;;;;8.25;96.61;103619.09;5114831;28;20196;-77
2021/12/17 09:49:19;;;;;;;17.43;10.43;;;;;;;8.15;96.67;103618.09;5114770;28;20605;-77
2021/12/17 09:51:47;;;;;;;19.00;10.07;;;;;;;8.16;96.58;103618.97;5096738;28;20209;-77
2021/12/17 09:54:14;;;;;;;20.20;11.37;;;;;;;8.21;96.87;103618.16;5114244;28;20238;-77
2021/12/17 09:56:41;;;;;;;22.17;11.77;;;;;;;8.25;96.95;103611.28;5114654;28;20255;-77
2021/12/17 09:59:08;;;;;;;15.17;10.47;;;;;;;8.20;96.60;103610.31;5114528;28;20552;-76
2021/12/17 10:01:39;;;;;;;20.47;10.10;;;;;;;8.19;96.87;103608.56;5114624;28;20181;-76
2021/12/17 10:04:28;;;;;;;19.50;10.27;;;;;;;8.31;96.59;103607.88;5113623;28;20698;-76
2021/12/17 10:07:19;;;;;;;17.57;10.57;;;;;;;8.25;96.51;103611.28;5114519;28;20257;-76
2021/12/17 10:09:50;;;;;;;18.43;10.27;;;;;;;8.27;96.59;103615.66;5114255;28;20209;-76
2021/12/17 10:12:22;;;;;;;17.73;10.03;;;;;;;8.25;96.67;103621.72;5114443;28;20185;-76
2021/12/17 10:15:08;;;;;;;13.67;9.70;;;;;;;8.23;96.82;103613.00;5114431;28;20173;-75
2021/12/17 10:17:37;;;;;;;15.77;9.50;;;;;;;8.25;96.78;103616.50;5114192;28;20197;-74
2021/12/17 10:20:06;;;;;;;17.70;9.43;;;;;;;8.28;96.63;103616.53;5113897;28;20201;-74
2021/12/17 10:22:34;;;;;;;14.93;10.03;;;;;;;8.30;96.79;103619.19;5113852;28;20200;-74
2021/12/17 10:25:10;;;;;;;13.23;9.37;;;;;;;8.31;96.86;103607.88;5113894;28;20258;-74
2021/12/17 10:27:40;;;;;;;15.77;9.83;;;;;;;8.37;96.79;103613.25;5114442;28;20188;-74
2021/12/17 10:30:19;;;;;;;13.00;8.50;;;;;;;8.40;96.30;103615.88;5114095;28;20214;-74
2021/12/17 10:32:50;;;;;;;11.93;8.53;;;;;;;8.39;96.24;103612.41;5113766;28;20647;-74
2021/12/17 10:35:22;;;;;;;9.30;7.63;;;;;;;8.42;96.09;103607.19;5114122;28;20177;-74
2021/12/17 10:37:55;;;;;;;8.47;7.27;;;;;;;8.45;95.92;103622.06;5113787;28;20177;-74
2021/12/17 10:40:31;;;;;;;9.00;7.87;;;;;;;8.43;95.70;103616.81;5114331;28;20205;-74
2021/12/17 10:45:31;;;;;;;10.20;8.17;;;;;;;8.52;95.08;103623.91;5113576;28;20208;-74
2021/12/17 10:48:30;;;;;;;8.00;7.57;;;;;;;8.55;95.13;103624.81;5113962;28;20502;-75
2021/12/17 10:51:10;;;;;;;7.00;6.60;;;;;;;8.49;94.77;103627.31;5114239;28;20579;-75
2021/12/17 10:53:37;;;;;;;8.17;6.93;;;;;;;8.50;94.62;103618.66;5113880;28;20629;-75
2021/12/17 10:56:03;;;;;;;7.67;7.03;;;;;;;8.46;94.76;103629.91;5113645;28;20191;-74
2021/12/17 10:58:30;;;;;;;8.27;7.50;;;;;;;8.54;94.52;103628.28;5113575;28;20678;-74
2021/12/17 11:01:02;;;;;;;7.20;6.67;;;;;;;8.58;94.21;103630.94;5113562;28;20193;-75
2021/12/17 11:03:29;;;;;;;6.80;6.33;;;;;;;8.47;94.41;103618.59;5113903;28;20539;-75
2021/12/17 11:05:58;;;;;;;7.90;7.17;;;;;;;8.52;94.27;103624.78;5113745;28;20220;-74
2021/12/17 11:08:28;;;;;;;7.13;6.50;;;;;;;8.34;94.26;103623.59;5113960;28;20166;-74
2021/12/17 11:11:08;;;;;;;5.83;5.53;;;;;;;8.42;94.73;103620.25;5113768;28;20200;-74
2021/12/17 11:13:55;;;;;;;6.57;6.17;;;;;;;8.48;94.56;103616.84;5114210;28;20184;-74
2021/12/17 11:16:22;;;;;;;5.47;5.17;;;;;;;8.47;94.65;103621.22;5133491;27;20184;-74
2021/12/17 11:18:49;;;;;;;6.57;6.20;;;;;;;8.55;94.51;103626.53;5117389;28;20216;-74
2021/12/17 11:21:15;;;;;;;6.00;5.80;;;;;;;8.51;94.65;103616.94;5117519;28;20197;-75
2021/12/17 11:23:42;;;;;;;5.63;5.37;;;;;;;8.48;94.60;103617.72;5099712;28;20180;-76
2021/12/17 11:26:09;;;;;;;4.87;4.77;;;;;;;8.51;94.72;103623.03;5117600;28;20193;-75
2021/12/17 11:28:36;;;;;;;5.63;5.33;;;;;;;8.62;94.03;103624.88;5117493;28;20189;-75
2021/12/17 11:31:03;;;;;;;4.97;4.87;;;;;;;8.53;94.12;103618.69;5117306;28;20197;-75
2021/12/17 11:33:30;;;;;;;4.40;4.23;;;;;;;8.50;93.77;103622.97;5117252;28;20639;-76
2021/12/17 11:35:57;;;;;;;5.27;5.07;;;;;;;8.40;94.02;103618.50;5117469;28;20190;-76
2021/12/17 11:38:47;;;;;;;4.80;4.50;;;;;;;8.38;94.31;103621.09;5117065;28;20586;-76
2021/12/17 11:42:24;;;;;;;4.73;4.60;;;;;;;8.45;94.49;103612.47;5098974;28;20204;-76
2021/12/17 11:47:44;;;;;;;4.47;4.17;;;;;;;8.48;93.56;103620.34;5117214;28;20173;-76
2021/12/17 11:50:14;;;;;;;4.30;4.30;;;;;;;8.54;93.61;103616.94;5116961;28;20219;-75
2021/12/17 11:52:43;;;;;;;3.80;3.60;;;;;;;8.40;93.17;103616.75;5099292;28;20193;-75
2021/12/17 11:55:25;;;;;;;3.93;3.83;;;;;;;8.45;93.64;103612.47;5117022;28;20181;-75
2021/12/17 11:57:54;;;;;;;4.20;4.10;;;;;;;8.46;92.54;103623.81;5117345;28;20177;-77
2021/12/17 12:00:30;;;;;;;3.53;3.43;;;;;;;8.44;92.99;103615.97;5116563;28;20300;-73
2021/12/17 12:03:19;;;;;;;4.30;4.17;;;;;;;8.51;92.26;103615.19;5116952;28;20177;-73
2021/12/17 12:05:49;;;;;;;3.43;3.43;;;;;;;8.43;91.88;103615.91;5117037;28;20638;-75
2021/12/17 12:08:26;;;;;;;4.20;4.10;;;;;;;8.41;91.92;103612.41;5116569;28;20227;-75
2021/12/17 12:11:09;;;;;;;4.07;3.77;;;;;;;8.42;92.31;103609.81;5116742;28;20201;-75
2021/12/17 12:13:48;;;;;;;4.50;4.33;;;;;;;8.35;92.07;103612.28;5116916;28;20185;-75
2021/12/17 12:16:30;;;;;;;3.90;3.70;;;;;;;8.35;92.64;103613.19;5116844;28;20165;-76
2021/12/17 12:19:07;;;;;;;3.70;3.70;;;;;;;8.34;92.33;103608.78;5116653;28;20295;-73
2021/12/17 12:21:39;;;;;;;3.57;3.57;;;;;;;8.41;92.43;103613.28;5116594;28;20204;-75
2021/12/17 12:24:14;;;;;;;4.00;4.00;;;;;;;8.36;92.51;103601.91;5116293;28;20173;-75
2021/12/17 12:26:51;;;;;;;3.87;3.87;;;;;;;8.48;92.10;103596.84;5080578;28;20192;-73
2021/12/17 12:29:22;;;;;;;4.23;4.03;;;;;;;8.49;92.14;103606.44;5098207;28;20205;-75
2021/12/17 12:32:22;;;;;;;4.40;4.40;;;;;;;8.49;92.12;103598.59;5116081;28;20192;-73
2021/12/17 12:34:50;;;;;;;4.67;4.67;;;;;;;8.50;91.76;103600.38;5116424;28;20173;-75
2021/12/17 12:37:26;;;;;;;5.10;4.90;;;;;;;8.47;91.96;103597.72;5116217;28;20484;-73
2021/12/17 12:39:58;;;;;;;4.80;4.80;;;;;;;8.56;91.60;103599.56;5116187;28;20222;-73
2021/12/17 12:42:35;;;;;;;4.37;4.27;;;;;;;8.48;91.57;103596.84;5115925;28;20182;-73
2021/12/17 12:45:07;;;;;;;4.83;4.63;;;;;;;8.52;91.63;103596.03;5116041;28;20230;-75
2021/12/17 12:47:44;;;;;;;4.73;4.63;;;;;;;8.55;90.75;103605.66;5116232;28;20170;-75
2021/12/17 12:50:14;;;;;;;5.17;5.10;;;;;;;8.40;89.38;103603.69;5115796;28;20292;-76
2021/12/17 12:52:50;;;;;;;5.53;5.43;;;;;;;8.40;89.98;103603.69;5115978;28;20234;-73
2021/12/17 12:55:40;;;;;;;4.93;4.70;;;;;;;8.51;89.62;103609.09;5116197;28;20173;-72
2021/12/17 12:58:14;;;;;;;5.67;5.37;;;;;;;8.52;89.50;103614.31;5097396;28;20185;-75
2021/12/17 13:00:57;;;;;;;6.40;6.20;;;;;;;8.42;89.68;103607.19;5115348;28;20238;-75
2021/12/17 13:03:27;;;;;;;6.03;5.67;;;;;;;8.46;88.42;103614.22;5115699;28;20234;-73
2021/12/17 13:05:55;;;;;;;6.03;5.80;;;;;;;8.46;88.20;103614.22;5115729;28;20565;-75
2021/12/17 13:08:23;;;;;;;6.07;5.77;;;;;;;8.53;87.54;103609.97;5115828;28;20188;-75
2021/12/17 13:10:55;;;;;;;6.67;6.57;;;;;;;8.42;87.69;103607.19;5115839;28;20192;-73
2021/12/17 13:23:28;;;;;;;4.70;4.60;;;;;;;8.28;85.45;103585.22;5114952;28;20185;-75
2021/12/17 13:26:23;;;;;;;5.00;4.90;;;;;;;8.33;85.32;103583.53;5115298;28;20262;-73
2021/12/17 13:29:01;;;;;;;4.90;4.70;;;;;;;8.36;84.82;103590.56;5112497;28;20264;-72
2021/12/17 13:31:35;;;;;;;4.30;4.30;;;;;;;8.28;84.02;103585.22;5115712;28;20555;-72
2021/12/17 13:34:14;;;;;;;4.73;4.70;;;;;;;8.23;82.55;103585.16;5115739;28;20558;-72
2021/12/17 13:36:53;;;;;;;4.47;4.37;;;;;;;8.37;81.39;103571.47;5114906;28;20174;-71
2021/12/17 13:39:22;;;;;;;4.37;4.17;;;;;;;8.36;81.67;103578.44;5115015;28;20212;-72
2021/12/17 13:41:49;;;;;;;4.97;4.97;;;;;;;8.46;81.37;103580.28;5114839;28;20604;-73
2021/12/17 13:44:38;;;;;;;4.47;4.17;;;;;;;8.46;81.63;103574.19;5114692;28;20177;-75
2021/12/17 13:47:21;;;;;;;3.20;3.20;;;;;;;8.39;82.11;103568.00;5097307;28;20189;-72
2021/12/17 13:49:56;;;;;;;3.90;3.80;;;;;;;8.42;82.04;103570.66;5114659;28;20209;-73
2021/12/17 13:52:26;;;;;;;4.57;4.47;;;;;;;8.38;81.15;103568.00;5114799;28;20665;-75
2021/12/17 13:54:53;;;;;;;4.30;4.30;;;;;;;8.38;81.03;103573.22;5114653;28;20214;-76
2021/12/17 13:57:24;;;;;;;4.40;4.40;;;;;;;8.34;81.50;103571.38;5115045;28;20199;-76
2021/12/17 13:59:51;;;;;;;4.50;4.30;;;;;;;8.39;81.79;103569.75;5115089;28;20219;-75
2021/12/17 14:02:21;;;;;;;4.80;4.77;;;;;;;8.39;80.60;103564.53;5114302;28;20238;-75
2021/12/17 14:05:01;;;;;;;5.80;5.50;;;;;;;8.42;80.45;103570.66;5114565;28;20174;-75
2021/12/17 14:07:30;;;;;;;5.40;5.20;;;;;;;8.38;81.04;103562.78;5114295;28;20205;-75
2021/12/17 14:10:05;;;;;;;4.90;4.80;;;;;;;8.39;81.49;103565.41;5114655;28;20209;-73
2021/12/17 14:12:37;;;;;;;4.80;4.70;;;;;;;8.38;81.16;103573.22;5114592;28;20168;-72
2021/12/17 14:15:27;;;;;;;5.00;4.57;;;;;;;8.39;81.02;103575.84;5114769;28;20185;-72
2021/12/17 14:17:57;;;;;;;5.10;5.00;;;;;;;8.40;79.97;103577.59;5114422;28;20178;-73
2021/12/17 14:20:26;;;;;;;5.00;4.90;;;;;;;8.42;80.48;103572.38;5113974;28;20220;-75
2021/12/17 14:23:04;;;;;;;4.80;4.70;;;;;;;8.33;80.28;103570.50;5095817;28;20193;-72
2021/12/17 14:25:43;;;;;;;4.77;4.67;;;;;;;8.42;80.25;103569.78;5079150;28;20196;-75
2021/12/17 14:28:30;;;;;;;5.17;5.07;;;;;;;8.30;81.08;103559.16;5114011;28;20188;-75
2021/12/17 14:31:12;;;;;;;6.40;6.30;;;;;;;8.32;81.29;103568.75;5095789;28;20177;-75